Time;durP1;ratioP1;P1;durP2;ratioP2;P2;SDS_P1;SDS_P2;PMS_P1;PMS_P2;Temp;Humidity;BMP_temperature;BMP_pressure;BME280_temperature;BME280_humidity;BME280_pressure;Samples;Min_cycle;Max_cycle;Signal;HPM_P1;HPM_P2
2021/08/29 00:00:35;;;;;;;1.00;0.60;;;;;;;12.78;100.00;101053.41;4996775;28;20047;-88
2021/08/29 00:03:04;;;;;;;0.63;0.50;;;;;;;12.81;100.00;101055.56;4986158;28;20050;-87
2021/08/29 00:05:37;;;;;;;0.70;0.50;;;;;;;12.85;100.00;101051.16;4989600;28;20111;-86
2021/08/29 00:08:10;;;;;;;0.40;0.40;;;;;;;12.79;100.00;101049.59;4993242;28;20498;-87
2021/08/29 00:10:43;;;;;;;0.43;0.43;;;;;;;12.77;100.00;101051.78;4975968;28;20069;-87
2021/08/29 00:13:12;;;;;;;1.13;0.45;;;;;;;12.77;100.00;101046.31;4990559;28;20065;-88
2021/08/29 00:15:46;;;;;;;0.75;0.40;;;;;;;12.72;100.00;101051.84;4988525;28;20053;-85
2021/08/29 00:19:21;;;;;;;2.00;0.50;;;;;;;12.72;100.00;101049.09;4983283;28;20051;-86
2021/08/29 00:21:54;;;;;;;0.50;0.50;;;;;;;12.67;100.00;101039.00;4988485;28;20043;-84
2021/08/29 00:24:28;;;;;;;0.60;0.50;;;;;;;12.72;100.00;101038.19;4978224;28;20487;-85
2021/08/29 00:27:01;;;;;;;1.13;0.47;;;;;;;12.59;100.00;101021.34;4990530;28;20434;-85
2021/08/29 00:29:35;;;;;;;1.92;0.57;;;;;;;12.74;100.00;101038.69;4991373;28;20062;-85
2021/08/29 00:32:05;;;;;;;0.47;0.40;;;;;;;12.68;100.00;101028.94;4991266;28;20055;-84
2021/08/29 00:34:33;;;;;;;0.50;0.50;;;;;;;12.70;100.00;101032.16;4982193;28;20089;-87
2021/08/29 00:37:02;;;;;;;0.50;0.50;;;;;;;12.49;100.00;101002.31;4991700;28;20061;-87
2021/08/29 00:39:31;;;;;;;0.50;0.50;;;;;;;12.69;100.00;101036.00;4991822;28;20061;-86
2021/08/29 00:42:06;;;;;;;0.57;0.52;;;;;;;12.70;100.00;101034.91;4991210;28;20383;-87
2021/08/29 00:44:43;;;;;;;1.52;0.60;;;;;;;12.71;100.00;101037.34;4991896;28;20128;-87
2021/08/29 00:47:13;;;;;;;0.40;0.40;;;;;;;12.70;100.00;101021.25;4991852;28;20058;-85
2021/08/29 00:49:42;;;;;;;0.50;0.50;;;;;;;12.57;100.00;101007.16;4987258;28;20426;-86
2021/08/29 00:52:16;;;;;;;0.40;0.40;;;;;;;12.72;100.00;101040.91;4983269;28;20062;-87
2021/08/29 00:54:45;;;;;;;2.42;0.68;;;;;;;12.72;100.00;101032.72;4989395;28;20518;-86
2021/08/29 00:57:14;;;;;;;0.50;0.50;;;;;;;12.72;100.00;101030.00;4990451;28;20057;-88
2021/08/29 00:59:53;;;;;;;0.65;0.60;;;;;;;12.71;100.00;101031.88;4991911;28;20054;-88
2021/08/29 01:02:27;;;;;;;0.60;0.50;;;;;;;12.55;100.00;101008.53;4984297;28;20410;-87
2021/08/29 01:05:04;;;;;;;0.73;0.70;;;;;;;12.52;100.00;100999.00;4985130;28;20050;-85
2021/08/29 01:07:49;;;;;;;0.95;0.60;;;;;;;12.68;100.00;101002.44;4979584;28;20062;-85
2021/08/29 01:10:29;;;;;;;1.08;0.60;;;;;;;12.75;100.00;101021.22;4978190;28;20070;-87
2021/08/29 01:12:59;;;;;;;1.10;0.70;;;;;;;12.53;100.00;100995.16;4991514;28;20046;-85
2021/08/29 01:15:31;;;;;;;0.98;0.60;;;;;;;12.60;100.00;101011.22;4991206;28;20101;-86
2021/08/29 01:18:03;;;;;;;1.00;0.70;;;;;;;12.71;100.00;101020.16;4988007;28;20054;-86
2021/08/29 01:20:44;;;;;;;0.85;0.52;;;;;;;12.67;100.00;101013.63;4987196;28;20058;-87
2021/08/29 01:23:20;;;;;;;0.90;0.55;;;;;;;12.68;100.00;101016.06;4980930;28;20796;-87
2021/08/29 01:25:56;;;;;;;0.77;0.70;;;;;;;12.74;100.00;101014.13;4991318;28;20047;-88
2021/08/29 01:28:50;;;;;;;1.73;0.60;;;;;;;12.79;100.00;101011.34;4990649;28;20066;-86
2021/08/29 01:31:20;;;;;;;1.25;0.60;;;;;;;12.73;100.00;101012.47;4991152;28;20055;-88
2021/08/29 01:33:49;;;;;;;0.82;0.50;;;;;;;12.73;100.00;101007.00;4995376;28;20375;-86
2021/08/29 01:36:24;;;;;;;0.70;0.60;;;;;;;12.86;100.00;101000.91;4994829;28;20057;-85
2021/08/29 01:38:58;;;;;;;0.70;0.70;;;;;;;12.80;100.00;101006.69;4994675;28;20046;-85
2021/08/29 01:41:33;;;;;;;0.40;0.40;;;;;;;12.75;100.00;101002.91;4993507;28;20055;-86
2021/08/29 01:44:05;;;;;;;1.33;0.52;;;;;;;12.65;100.00;100988.53;4993954;28;20050;-87
2021/08/29 01:46:36;;;;;;;0.60;0.50;;;;;;;12.73;100.00;101002.38;4994643;28;20066;-86
2021/08/29 01:49:11;;;;;;;0.50;0.50;;;;;;;12.75;100.00;101002.09;4992000;28;20402;-86
2021/08/29 01:51:45;;;;;;;0.77;0.50;;;;;;;12.78;100.00;101008.91;4984356;28;20046;-84
2021/08/29 01:54:22;;;;;;;0.68;0.50;;;;;;;12.70;100.00;101005.66;4994663;28;20049;-87
2021/08/29 01:57:18;;;;;;;0.53;0.53;;;;;;;12.77;100.00;101005.34;4992586;28;20398;-85
2021/08/29 02:00:01;;;;;;;0.75;0.60;;;;;;;12.77;100.00;101013.53;4994609;28;20061;-86
2021/08/29 02:02:40;;;;;;;0.50;0.50;;;;;;;12.70;100.00;101005.66;4994781;28;20046;-86
2021/08/29 02:05:11;;;;;;;1.55;0.60;;;;;;;12.63;100.00;100982.53;4993802;28;20510;-86
2021/08/29 02:07:47;;;;;;;0.70;0.50;;;;;;;12.75;100.00;101005.63;4991080;28;20066;-86
2021/08/29 02:10:31;;;;;;;0.63;0.38;;;;;;;12.65;100.00;100986.63;5006360;28;20058;-86
2021/08/29 02:13:25;;;;;;;0.65;0.60;;;;;;;12.75;100.00;101004.84;4986164;28;20057;-87
2021/08/29 02:16:03;;;;;;;2.55;0.60;;;;;;;12.79;100.00;101005.06;4993257;28;20058;-86
2021/08/29 02:18:38;;;;;;;1.05;0.50;;;;;;;12.78;100.00;100995.25;4984888;28;20046;-87
2021/08/29 02:21:07;;;;;;;0.60;0.60;;;;;;;12.82;100.00;101007.22;4988881;28;20042;-86
2021/08/29 02:23:41;;;;;;;1.05;0.60;;;;;;;12.58;100.00;100976.03;4993964;28;20049;-86
2021/08/29 02:26:15;;;;;;;1.55;0.55;;;;;;;12.74;100.00;100989.53;4993864;28;20065;-88
2021/08/29 02:28:45;;;;;;;0.52;0.40;;;;;;;12.73;100.00;100996.09;4989218;28;20062;-86
2021/08/29 02:31:20;;;;;;;0.50;0.50;;;;;;;12.71;100.00;100987.38;4985484;28;20498;-84
2021/08/29 02:33:53;;;;;;;0.40;0.40;;;;;;;12.72;100.00;100995.28;4989919;28;20054;-86
2021/08/29 02:36:23;;;;;;;1.38;0.45;;;;;;;12.76;100.00;100990.09;4992682;28;20533;-87
2021/08/29 02:38:54;;;;;;;0.65;0.43;;;;;;;12.78;100.00;100992.53;4993430;28;20804;-85
2021/08/29 02:41:28;;;;;;;0.47;0.40;;;;;;;12.76;100.00;100995.53;4992594;28;20722;-86
2021/08/29 02:43:59;;;;;;;0.38;0.38;;;;;;;12.70;100.00;100980.28;4992795;28;20042;-86
2021/08/29 02:46:35;;;;;;;0.43;0.40;;;;;;;12.62;100.00;100968.06;4992099;28;20046;-86
2021/08/29 02:49:05;;;;;;;0.50;0.50;;;;;;;12.82;100.00;100988.91;4982968;28;20539;-85
2021/08/29 02:51:38;;;;;;;0.40;0.40;;;;;;;12.78;100.00;100993.31;4990742;28;20058;-86
2021/08/29 02:54:06;;;;;;;0.50;0.32;;;;;;;12.80;100.00;100991.13;4993521;28;20066;-82
2021/08/29 02:56:37;;;;;;;1.02;0.50;;;;;;;12.78;100.00;100978.88;4990583;28;20507;-86
2021/08/29 02:59:05;;;;;;;0.43;0.43;;;;;;;12.79;100.00;100989.50;4989584;28;20046;-86
2021/08/29 03:01:40;;;;;;;1.55;0.50;;;;;;;12.79;100.00;100989.50;4992031;28;20049;-86
2021/08/29 03:04:13;;;;;;;0.40;0.40;;;;;;;12.82;100.00;100988.91;4987363;28;20742;-86
2021/08/29 03:06:47;;;;;;;3.25;0.68;;;;;;;12.71;100.00;100973.75;4980105;28;20046;-84
2021/08/29 03:09:15;;;;;;;0.85;0.50;;;;;;;12.73;100.00;100972.34;4992763;28;20050;-86
2021/08/29 03:11:51;;;;;;;0.40;0.40;;;;;;;12.82;100.00;100978.00;4992196;28;20053;-86
2021/08/29 03:14:49;;;;;;;0.88;0.47;;;;;;;12.81;100.00;100979.09;4982439;28;20054;-85
2021/08/29 03:17:26;;;;;;;0.40;0.40;;;;;;;12.79;100.00;100972.28;4990119;28;20046;-86
2021/08/29 03:20:06;;;;;;;0.40;0.40;;;;;;;12.78;100.00;100976.94;4990103;28;20387;-85
2021/08/29 03:22:48;;;;;;;0.40;0.40;;;;;;;12.80;100.00;100973.91;4989229;28;20867;-85
2021/08/29 03:25:22;;;;;;;0.30;0.30;;;;;;;12.88;100.00;100974.09;4979373;28;20065;-87
2021/08/29 03:27:56;;;;;;;0.85;0.40;;;;;;;12.81;100.00;100976.34;4990050;28;20047;-85
2021/08/29 03:30:29;;;;;;;0.45;0.40;;;;;;;12.84;100.00;100974.97;5001915;28;20507;-85
2021/08/29 03:33:05;;;;;;;0.40;0.40;;;;;;;12.74;100.00;100951.31;4991887;28;20051;-85
2021/08/29 03:35:43;;;;;;;0.32;0.32;;;;;;;12.83;100.00;100962.41;4991875;28;20057;-85
2021/08/29 03:38:18;;;;;;;0.50;0.40;;;;;;;12.78;100.00;100960.56;4992371;28;20054;-85
2021/08/29 03:40:47;;;;;;;0.50;0.45;;;;;;;12.83;100.00;100965.97;4981414;28;20039;-85
2021/08/29 03:43:20;;;;;;;0.40;0.40;;;;;;;12.83;100.00;100965.97;4985169;28;20065;-84
2021/08/29 03:45:54;;;;;;;0.98;0.45;;;;;;;12.79;100.00;100964.91;4989295;28;20054;-85
2021/08/29 03:48:24;;;;;;;2.00;0.52;;;;;;;12.72;100.00;100948.88;4991419;28;20059;-86
2021/08/29 03:50:53;;;;;;;1.08;0.63;;;;;;;12.77;100.00;100956.19;4984573;28;20051;-85
2021/08/29 03:53:23;;;;;;;0.50;0.50;;;;;;;12.87;100.00;100961.56;4992143;28;20061;-83
2021/08/29 03:55:59;;;;;;;2.35;0.57;;;;;;;12.85;100.00;100966.50;4991523;28;20049;-85
2021/08/29 03:58:34;;;;;;;2.40;0.57;;;;;;;12.86;100.00;100964.59;4992280;28;20058;-86
2021/08/29 04:01:03;;;;;;;1.02;0.47;;;;;;;12.86;100.00;100972.78;4991760;28;20054;-86
2021/08/29 04:03:38;;;;;;;0.57;0.50;;;;;;;12.84;100.00;100959.41;4988772;28;20046;-85
2021/08/29 04:06:19;;;;;;;0.50;0.50;;;;;;;12.83;100.00;100954.22;4973039;28;20047;-84
2021/08/29 04:08:55;;;;;;;0.77;0.52;;;;;;;12.86;100.00;100967.31;4982986;28;20050;-84
2021/08/29 04:11:28;;;;;;;0.50;0.47;;;;;;;12.89;100.00;100966.75;4990370;28;20055;-85
2021/08/29 04:14:02;;;;;;;0.57;0.40;;;;;;;12.91;100.00;100962.63;4990140;28;20050;-86
2021/08/29 04:16:34;;;;;;;2.83;0.60;;;;;;;12.92;100.00;100966.16;4991433;28;20054;-86
2021/08/29 04:19:30;;;;;;;0.95;0.45;;;;;;;12.97;100.00;100965.28;4990834;28;20053;-87
2021/08/29 04:22:05;;;;;;;0.45;0.45;;;;;;;12.93;100.00;100971.31;4990760;28;20054;-85
2021/08/29 04:24:39;;;;;;;0.40;0.40;;;;;;;12.93;100.00;100970.53;4989917;28;20046;-85
2021/08/29 04:27:13;;;;;;;0.40;0.40;;;;;;;12.88;100.00;100970.56;5002126;28;20569;-86
2021/08/29 04:29:50;;;;;;;0.85;0.57;;;;;;;12.88;100.00;100967.84;4987633;28;20051;-87
2021/08/29 04:32:26;;;;;;;0.30;0.30;;;;;;;12.89;100.00;100966.75;4991488;28;20058;-85
2021/08/29 04:34:56;;;;;;;0.40;0.40;;;;;;;12.84;100.00;100962.16;4991371;28;20054;-85
2021/08/29 04:37:38;;;;;;;0.68;0.30;;;;;;;12.83;100.00;100965.97;4987932;28;20069;-87
2021/08/29 04:40:15;;;;;;;0.30;0.30;;;;;;;12.99;100.00;100968.53;4975737;28;20051;-86
2021/08/29 04:42:51;;;;;;;0.40;0.40;;;;;;;12.98;100.00;100975.09;4987513;28;20078;-84
2021/08/29 04:45:22;;;;;;;0.45;0.40;;;;;;;12.86;100.00;100964.59;4991067;28;20059;-85
2021/08/29 04:47:54;;;;;;;2.08;0.40;;;;;;;13.01;100.00;100972.63;4987628;28;20061;-86
2021/08/29 04:50:24;;;;;;;0.45;0.35;;;;;;;12.95;100.00;100970.22;4991395;28;20109;-85
2021/08/29 04:52:58;;;;;;;0.40;0.40;;;;;;;12.97;100.00;100979.78;4990952;28;20057;-85
2021/08/29 04:55:30;;;;;;;0.70;0.35;;;;;;;12.93;100.00;100968.59;4991525;28;20059;-85
2021/08/29 04:57:58;;;;;;;0.45;0.43;;;;;;;12.88;100.00;100963.19;4985109;28;20487;-86
2021/08/29 05:00:27;;;;;;;0.88;0.40;;;;;;;12.99;100.00;100976.75;4982284;28;20038;-85
2021/08/29 05:03:03;;;;;;;0.40;0.40;;;;;;;13.06;100.00;100977.22;4984610;28;20070;-84
2021/08/29 05:05:34;;;;;;;0.73;0.40;;;;;;;13.12;100.00;100983.44;4978698;28;20059;-85
2021/08/29 05:08:02;;;;;;;0.77;0.40;;;;;;;13.02;100.00;100987.91;4986147;28;20069;-84
2021/08/29 05:10:30;;;;;;;0.68;0.50;;;;;;;13.02;100.00;100987.91;4991536;28;20058;-84
2021/08/29 05:13:05;;;;;;;0.50;0.50;;;;;;;13.00;100.00;100987.38;4983543;28;20054;-84
2021/08/29 05:15:39;;;;;;;0.65;0.50;;;;;;;13.05;100.00;100990.06;4984659;28;20053;-85
2021/08/29 05:18:07;;;;;;;0.47;0.47;;;;;;;13.08;100.00;100980.47;4986266;28;20058;-87
2021/08/29 05:20:45;;;;;;;0.93;0.60;;;;;;;13.07;100.00;100989.78;4991420;28;20050;-86
2021/08/29 05:23:52;;;;;;;1.27;0.60;;;;;;;13.07;100.00;100982.38;4974126;28;20051;-85
2021/08/29 05:26:33;;;;;;;1.50;0.60;;;;;;;13.10;100.00;100984.56;4957957;28;20042;-85
2021/08/29 05:29:02;;;;;;;0.90;0.50;;;;;;;13.18;100.00;100985.81;4973886;28;20053;-85
2021/08/29 05:31:31;;;;;;;1.35;0.60;;;;;;;13.09;100.00;100980.19;4994056;28;20054;-84
2021/08/29 05:33:59;;;;;;;0.60;0.52;;;;;;;13.04;100.00;100982.97;4993171;28;20681;-86
2021/08/29 05:36:29;;;;;;;1.05;0.60;;;;;;;13.10;100.00;100986.47;4994491;28;20058;-84
2021/08/29 05:38:57;;;;;;;1.20;0.60;;;;;;;12.97;100.00;100965.28;4994548;28;20050;-85
2021/08/29 05:41:33;;;;;;;1.08;0.73;;;;;;;13.12;100.00;100986.16;4990333;28;20038;-84
2021/08/29 05:44:32;;;;;;;0.50;0.50;;;;;;;13.20;100.00;100989.09;4991126;28;20090;-86
2021/08/29 05:47:06;;;;;;;1.23;0.60;;;;;;;13.19;100.00;100981.19;4993558;28;20399;-85
2021/08/29 05:49:40;;;;;;;0.90;0.60;;;;;;;13.32;100.00;100996.88;4988400;28;20404;-84
2021/08/29 05:52:10;;;;;;;0.63;0.60;;;;;;;13.27;100.00;100986.81;4990973;28;20518;-85
2021/08/29 05:54:40;;;;;;;2.25;0.65;;;;;;;13.22;100.00;100975.94;4987077;28;20051;-85
2021/08/29 05:57:08;;;;;;;0.60;0.60;;;;;;;13.24;100.00;100981.94;4990953;28;20059;-84
2021/08/29 05:59:41;;;;;;;0.60;0.50;;;;;;;13.33;100.00;100994.97;4984747;28;20051;-86
2021/08/29 06:02:09;;;;;;;0.85;0.45;;;;;;;13.39;100.00;100991.09;4987685;28;20459;-86
2021/08/29 06:04:43;;;;;;;0.63;0.60;;;;;;;13.38;100.00;100995.75;4988147;28;20058;-86
2021/08/29 06:07:25;;;;;;;1.05;0.43;;;;;;;13.39;100.00;100994.63;4975904;28;20058;-85
2021/08/29 06:10:03;;;;;;;0.60;0.50;;;;;;;13.39;100.00;100997.38;4986691;28;20051;-85
2021/08/29 06:12:40;;;;;;;1.17;0.70;;;;;;;13.49;100.00;100992.91;4983575;28;20426;-87
2021/08/29 06:15:13;;;;;;;1.58;0.82;;;;;;;13.56;100.00;101001.56;4998331;28;20046;-85
2021/08/29 06:17:42;;;;;;;0.70;0.70;;;;;;;13.48;100.00;101002.19;4993797;28;20057;-86
2021/08/29 06:20:16;;;;;;;1.17;0.70;;;;;;;13.47;100.00;101000.59;4985449;28;20058;-87
2021/08/29 06:22:50;;;;;;;0.90;0.70;;;;;;;13.52;100.00;101000.50;5001672;28;20410;-86
2021/08/29 06:25:37;;;;;;;0.60;0.60;;;;;;;13.51;100.00;100996.16;4986711;28;20054;-86
2021/08/29 06:28:40;;;;;;;1.35;0.80;;;;;;;13.60;100.00;101002.59;4963763;28;20058;-84
2021/08/29 06:31:27;;;;;;;0.70;0.70;;;;;;;13.67;100.00;100999.50;4985524;28;20065;-84
2021/08/29 06:34:20;;;;;;;1.55;0.80;;;;;;;13.71;100.00;100987.72;4989590;28;20053;-86
2021/08/29 06:36:53;;;;;;;1.15;0.70;;;;;;;13.72;100.00;100983.84;4991116;28;20050;-84
2021/08/29 06:39:28;;;;;;;0.70;0.70;;;;;;;13.79;100.00;100972.53;4987559;28;20050;-84
2021/08/29 06:42:01;;;;;;;1.63;0.68;;;;;;;13.83;100.00;100970.03;4982071;28;20058;-84
2021/08/29 06:44:32;;;;;;;2.10;0.70;;;;;;;13.81;100.00;100977.72;4992150;28;20061;-85
2021/08/29 06:47:24;;;;;;;1.25;0.70;;;;;;;13.87;100.00;100969.16;4991331;28;20053;-85
2021/08/29 06:50:15;;;;;;;0.93;0.70;;;;;;;13.83;100.00;100962.66;4985689;28;20727;-85
2021/08/29 06:53:07;;;;;;;0.70;0.70;;;;;;;14.01;100.00;100971.97;4988591;28;20528;-85
2021/08/29 06:56:09;;;;;;;0.70;0.70;;;;;;;14.06;100.00;100971.91;4961526;28;20055;-85
2021/08/29 06:58:57;;;;;;;1.08;0.70;;;;;;;14.10;100.00;100969.41;4979011;28;20047;-86
2021/08/29 07:01:30;;;;;;;0.65;0.50;;;;;;;13.98;100.00;100972.56;4975930;28;20053;-85
2021/08/29 07:04:04;;;;;;;0.55;0.55;;;;;;;14.01;100.00;100982.91;4993114;28;20042;-84
2021/08/29 07:06:32;;;;;;;0.70;0.60;;;;;;;14.04;100.00;100984.25;4983313;28;20518;-85
2021/08/29 07:09:38;;;;;;;0.55;0.50;;;;;;;14.11;100.00;100987.41;4982877;28;20039;-83
2021/08/29 07:12:13;;;;;;;0.50;0.50;;;;;;;14.12;100.00;100983.59;4997646;28;20059;-85
2021/08/29 07:15:15;;;;;;;0.40;0.40;;;;;;;14.07;100.00;100983.66;4979281;28;20530;-85
2021/08/29 07:17:51;;;;;;;1.52;0.60;;;;;;;14.17;100.00;100972.56;4987971;28;20043;-86
2021/08/29 07:20:47;;;;;;;0.85;0.60;;;;;;;14.26;100.00;100995.41;4982904;28;20438;-86
2021/08/29 07:23:39;;;;;;;0.50;0.50;;;;;;;14.35;100.00;100989.25;4992165;28;20525;-86
2021/08/29 07:26:51;;;;;;;1.20;0.57;;;;;;;14.46;100.00;100990.75;4981833;28;20099;-90
2021/08/29 07:29:44;;;;;;;0.70;0.57;;;;;;;14.54;100.00;100992.81;4980299;28;20064;-91
2021/08/29 07:32:30;;;;;;;0.95;0.60;;;;;;;14.38;100.00;100994.16;4987454;28;20712;-85
2021/08/29 07:35:05;;;;;;;0.52;0.40;;;;;;;14.20;100.00;100984.84;4989669;28;20066;-89
2021/08/29 07:38:00;;;;;;;0.50;0.50;;;;;;;14.19;100.00;100991.44;4986845;28;20058;-87
2021/08/29 07:40:28;;;;;;;1.30;0.50;;;;;;;14.26;100.00;100983.66;5002970;28;20053;-85
2021/08/29 07:43:02;;;;;;;0.40;0.40;;;;;;;14.24;100.00;100992.16;4985490;28;20050;-85
2021/08/29 07:45:36;;;;;;;0.43;0.43;;;;;;;14.37;100.00;100987.84;4979298;28;20054;-88
2021/08/29 07:48:10;;;;;;;1.00;0.57;;;;;;;14.32;100.00;100990.69;4982110;28;20407;-88
2021/08/29 07:50:43;;;;;;;0.40;0.40;;;;;;;14.35;100.00;100986.50;4981805;28;20050;-84
2021/08/29 07:53:19;;;;;;;0.60;0.50;;;;;;;14.41;100.00;100988.06;5006281;28;20058;-86
2021/08/29 07:56:12;;;;;;;0.40;0.40;;;;;;;14.39;100.00;100982.91;4985624;28;20054;-85
2021/08/29 07:58:46;;;;;;;0.45;0.45;;;;;;;14.37;100.00;100993.31;4992168;28;20054;-88
2021/08/29 08:01:18;;;;;;;0.40;0.40;;;;;;;14.31;100.00;100986.31;5000443;28;20054;-87
2021/08/29 08:03:47;;;;;;;1.05;0.60;;;;;;;14.39;100.00;100987.53;4982245;28;20047;-86
2021/08/29 08:07:00;;;;;;;0.82;0.57;;;;;;;14.35;100.00;100992.81;4986241;28;20042;-87
2021/08/29 08:09:47;;;;;;;1.00;0.55;;;;;;;14.59;100.00;100987.22;4984401;28;20632;-89
2021/08/29 08:12:55;;;;;;;0.63;0.50;;;;;;;14.60;100.00;100977.91;4985495;28;20055;-85
2021/08/29 08:15:29;;;;;;;0.57;0.50;;;;;;;14.73;100.00;100984.53;4986933;28;20049;-87
2021/08/29 08:18:04;;;;;;;0.70;0.50;;;;;;;14.79;100.00;100988.03;4981827;28;20054;-86
2021/08/29 08:20:40;;;;;;;0.40;0.40;;;;;;;14.71;100.00;100984.06;4979609;28;20046;-89
2021/08/29 08:23:39;;;;;;;0.73;0.40;;;;;;;14.93;100.00;100988.06;4989701;28;20058;-88
2021/08/29 08:26:32;;;;;;;0.82;0.50;;;;;;;14.98;100.00;101000.84;4987867;28;20057;-87
2021/08/29 08:29:41;;;;;;;0.40;0.32;;;;;;;14.90;100.00;100992.22;4990462;28;20052;-88
2021/08/29 08:32:55;;;;;;;0.40;0.40;;;;;;;14.87;100.00;101001.03;4974172;28;20057;-89
2021/08/29 08:35:43;;;;;;;0.75;0.47;;;;;;;14.91;100.00;100991.09;4985522;28;20054;-84
2021/08/29 08:38:31;;;;;;;0.77;0.70;;;;;;;14.93;100.00;100999.81;4975565;28;20062;-84
2021/08/29 08:41:20;;;;;;;0.25;0.25;;;;;;;14.96;100.00;100993.75;4978818;28;20772;-85
2021/08/29 08:44:07;;;;;;;;;;;;;;;15.09;100.00;100997.63;4982668;28;20493;-85
2021/08/29 08:47:07;;;;;;;0.30;0.30;;;;;;;15.17;100.00;100998.03;4979478;28;19930;-86
2021/08/29 08:49:58;;;;;;;0.40;0.30;;;;;;;15.14;100.00;101002.19;4989549;28;20065;-84
2021/08/29 08:52:55;;;;;;;0.45;0.40;;;;;;;15.12;100.00;100993.44;4987535;28;20061;-84
2021/08/29 08:55:41;;;;;;;0.20;0.20;;;;;;;15.07;100.00;100999.03;4983068;28;20057;-85
2021/08/29 08:58:30;;;;;;;1.17;0.30;;;;;;;15.05;100.00;101004.00;4982683;28;20065;-85
2021/08/29 09:01:17;;;;;;;0.20;0.20;;;;;;;15.17;100.00;101003.53;4981291;28;20065;-86
2021/08/29 09:04:06;;;;;;;0.30;0.30;;;;;;;15.18;100.00;101003.22;4961438;28;20536;-86
2021/08/29 09:06:40;;;;;;;0.28;0.28;;;;;;;15.08;100.00;101008.88;4983781;28;20042;-86
2021/08/29 09:09:15;;;;;;;0.20;0.20;;;;;;;15.04;100.00;101011.41;4980631;28;20069;-86
2021/08/29 09:11:47;;;;;;;0.43;0.32;;;;;;;14.94;100.00;101009.69;4979087;28;20406;-85
2021/08/29 09:14:15;;;;;;;0.68;0.40;;;;;;;14.91;100.00;101007.53;4980637;28;20058;-86
2021/08/29 09:16:52;;;;;;;0.20;0.20;;;;;;;14.86;100.00;101012.28;4982105;28;20054;-85
2021/08/29 09:19:28;;;;;;;0.30;0.30;;;;;;;14.87;100.00;101002.94;4984375;28;20062;-85
2021/08/29 09:22:01;;;;;;;0.30;0.30;;;;;;;14.91;100.00;101002.03;4982699;28;20065;-85
2021/08/29 09:24:32;;;;;;;0.22;0.22;;;;;;;14.91;100.00;101001.25;4982965;28;20069;-87
2021/08/29 09:27:32;;;;;;;0.38;0.30;;;;;;;14.91;100.00;101001.25;4985087;28;20502;-87
2021/08/29 09:30:32;;;;;;;0.20;0.20;;;;;;;15.18;100.00;101007.88;4984543;28;20054;-87
2021/08/29 09:33:06;;;;;;;0.20;0.20;;;;;;;15.17;100.00;101000.78;4980287;28;20057;-83
2021/08/29 09:35:35;;;;;;;0.20;0.20;;;;;;;15.21;100.00;101002.59;4985738;28;20059;-84
2021/08/29 09:38:43;;;;;;;0.20;0.20;;;;;;;15.29;100.00;101007.38;4992362;28;20131;-85
2021/08/29 09:41:28;;;;;;;0.20;0.20;;;;;;;15.35;100.00;101013.59;4982307;28;20061;-87
2021/08/29 09:44:33;;;;;;;0.30;0.20;;;;;;;15.30;100.00;101006.28;4968021;28;20062;-86
2021/08/29 09:47:23;;;;;;;0.28;0.28;;;;;;;15.23;100.00;101007.78;4978735;28;20069;-83
2021/08/29 09:50:20;;;;;;;0.30;0.22;;;;;;;15.28;100.00;101016.72;4987671;28;20073;-84
2021/08/29 09:53:03;;;;;;;0.20;0.20;;;;;;;15.26;100.00;101021.72;4978121;28;20046;-84
2021/08/29 09:55:54;;;;;;;0.40;0.40;;;;;;;15.27;100.00;101031.56;4992252;28;20065;-83
2021/08/29 09:58:47;;;;;;;0.55;0.55;;;;;;;15.19;100.00;101023.22;4989978;28;20061;-83
2021/08/29 10:01:37;;;;;;;0.80;0.80;;;;;;;15.16;100.00;101019.13;4978538;28;20062;-84
2021/08/29 10:04:21;;;;;;;1.10;1.00;;;;;;;15.15;100.00;101023.03;4981934;28;20061;-83
2021/08/29 10:07:10;;;;;;;1.48;1.30;;;;;;;15.07;100.00;101026.47;4981835;28;20061;-83
2021/08/29 10:09:48;;;;;;;2.13;1.30;;;;;;;15.14;100.00;101027.66;4982628;28;20054;-87
2021/08/29 10:12:26;;;;;;;2.13;1.48;;;;;;;15.16;100.00;101030.09;4981803;28;20062;-83
2021/08/29 10:15:02;;;;;;;1.88;1.50;;;;;;;15.11;100.00;101014.56;4979461;28;20062;-85
2021/08/29 10:17:36;;;;;;;2.65;1.73;;;;;;;15.17;100.00;101030.94;4982353;28;20058;-85
2021/08/29 10:20:25;;;;;;;2.65;1.90;;;;;;;15.20;100.00;101022.91;4982281;28;20066;-85
2021/08/29 10:23:17;;;;;;;4.18;2.03;;;;;;;15.22;100.00;101025.34;4977439;28;20142;-84
2021/08/29 10:25:52;;;;;;;2.45;1.70;;;;;;;15.23;100.00;101019.56;4977341;28;20093;-84
2021/08/29 10:29:07;;;;;;;2.72;1.88;;;;;;;15.34;100.00;101022.13;4973785;28;20070;-85
2021/08/29 10:32:12;;;;;;;2.90;1.75;;;;;;;15.40;100.00;101018.16;4981776;28;20062;-84
2021/08/29 10:34:48;;;;;;;2.25;1.58;;;;;;;15.58;100.00;101017.25;4975109;28;20546;-84
2021/08/29 10:37:22;;;;;;;2.17;1.80;;;;;;;15.62;100.00;101017.47;4976694;28;21538;-87
2021/08/29 10:40:16;;;;;;;2.40;1.50;;;;;;;15.61;100.00;101024.84;4979151;28;20533;-84
2021/08/29 10:43:05;;;;;;;1.60;1.20;;;;;;;15.71;100.00;101018.34;4976597;28;20054;-84
2021/08/29 10:46:01;;;;;;;2.55;1.48;;;;;;;15.81;100.00;101029.16;4959876;28;20059;-84
2021/08/29 10:48:56;;;;;;;1.60;1.20;;;;;;;15.66;100.00;101015.72;4987866;28;20426;-88
2021/08/29 10:51:37;;;;;;;1.58;1.20;;;;;;;15.85;100.00;101034.03;4979874;28;20057;-83
2021/08/29 10:54:12;;;;;;;1.70;1.35;;;;;;;16.12;100.00;101033.16;4979392;28;20081;-83
2021/08/29 10:57:24;;;;;;;1.38;1.10;;;;;;;16.15;100.00;101036.09;4976352;28;20082;-84
2021/08/29 11:00:10;;;;;;;1.30;1.10;;;;;;;15.95;100.00;101033.78;4978134;28;21409;-84
2021/08/29 11:02:47;;;;;;;1.30;1.10;;;;;;;15.76;100.00;101034.72;4978736;28;21350;-84
2021/08/29 11:05:54;;;;;;;1.88;1.10;;;;;;;15.77;100.00;101038.25;4941795;28;20549;-83
2021/08/29 11:08:33;;;;;;;1.63;1.10;;;;;;;15.63;100.00;101041.00;4978537;28;20050;-84
2021/08/29 11:11:06;;;;;;;2.08;1.20;;;;;;;15.44;100.00;101043.88;4977233;28;20069;-85
2021/08/29 11:13:39;;;;;;;1.77;1.33;;;;;;;15.39;100.00;101042.03;4977331;28;20462;-82
2021/08/29 11:16:20;;;;;;;2.17;1.50;;;;;;;15.36;100.00;101044.56;4976410;28;20586;-82
2021/08/29 11:19:09;;;;;;;2.17;1.48;;;;;;;15.39;100.00;101041.22;4977098;28;20062;-84
2021/08/29 11:22:37;;;;;;;1.85;1.30;;;;;;;15.26;100.00;101054.59;4979731;28;20077;-84
2021/08/29 11:25:34;;;;;;;1.60;1.00;;;;;;;15.21;100.00;101041.00;4967893;28;20069;-83
2021/08/29 11:28:35;;;;;;;1.85;1.40;;;;;;;15.23;100.00;101043.41;4970506;28;20058;-84
2021/08/29 11:31:50;;;;;;;1.95;1.20;;;;;;;15.26;100.00;101049.13;4978172;28;20557;-87
2021/08/29 11:34:30;;;;;;;2.22;1.40;;;;;;;15.14;100.00;101049.59;4977277;28;20906;-84
2021/08/29 11:37:23;;;;;;;2.17;1.67;;;;;;;15.11;100.00;101052.94;4980703;28;20049;-83
2021/08/29 11:40:19;;;;;;;2.67;1.75;;;;;;;15.00;100.00;101046.03;4975720;28;20054;-82
2021/08/29 11:43:15;;;;;;;2.90;1.90;;;;;;;15.06;100.00;101047.56;4980035;28;20058;-83
2021/08/29 11:45:59;;;;;;;2.67;1.75;;;;;;;15.13;100.00;101048.00;4976186;28;20062;-82
2021/08/29 11:48:54;;;;;;;2.70;1.85;;;;;;;15.07;100.00;101062.91;4982440;28;20050;-83
2021/08/29 11:51:32;;;;;;;2.65;1.80;;;;;;;14.92;100.00;101055.75;4977368;28;20534;-83
2021/08/29 11:54:20;;;;;;;2.75;1.90;;;;;;;14.87;100.00;101055.81;4974583;28;20066;-82
2021/08/29 11:57:00;;;;;;;3.53;2.20;;;;;;;14.86;100.00;101065.19;4976272;28;20414;-83
2021/08/29 11:59:31;;;;;;;3.38;2.20;;;;;;;14.91;100.00;101064.25;4977497;28;20062;-83
2021/08/29 12:02:10;;;;;;;2.97;2.17;;;;;;;14.91;100.00;101064.25;4976571;28;20054;-84
2021/08/29 12:04:51;;;;;;;3.10;2.00;;;;;;;14.88;100.00;101075.84;4975825;28;20057;-82
2021/08/29 12:07:51;;;;;;;3.95;2.08;;;;;;;14.93;100.00;101073.00;4985069;28;20116;-81
2021/08/29 12:10:46;;;;;;;2.92;1.90;;;;;;;14.78;100.00;101080.34;4983818;28;20065;-80
2021/08/29 12:13:45;;;;;;;2.60;1.92;;;;;;;14.89;100.00;101083.75;4959317;28;20062;-82
2021/08/29 12:16:52;;;;;;;2.58;1.80;;;;;;;14.84;100.00;101078.34;4960501;28;20058;-83